sensor_id;sensor_type;location;lat;lon;timestamp;temperature;humidity
39655;DHT22;25336;59.944;11.010;2023-12-04T00:00:46;-8.60;64.30
39655;DHT22;25336;59.944;11.010;2023-12-04T00:03:11;-8.60;64.40
39655;DHT22;25336;59.944;11.010;2023-12-04T00:05:37;-8.50;64.50
39655;DHT22;25336;59.944;11.010;2023-12-04T00:08:03;-8.50;64.40
39655;DHT22;25336;59.944;11.010;2023-12-04T00:10:28;-8.50;64.30
39655;DHT22;25336;59.944;11.010;2023-12-04T00:12:54;-8.50;64.30
39655;DHT22;25336;59.944;11.010;2023-12-04T00:15:20;-8.50;64.40
39655;DHT22;25336;59.944;11.010;2023-12-04T00:17:47;-8.50;64.40
39655;DHT22;25336;59.944;11.010;2023-12-04T00:20:13;-8.50;64.40
39655;DHT22;25336;59.944;11.010;2023-12-04T00:22:38;-8.50;64.30
39655;DHT22;25336;59.944;11.010;2023-12-04T00:25:05;-7.80;64.70
39655;DHT22;25336;59.944;11.010;2023-12-04T00:27:31;-8.50;64.20
39655;DHT22;25336;59.944;11.010;2023-12-04T00:29:57;-8.50;64.10
39655;DHT22;25336;59.944;11.010;2023-12-04T00:32:23;-8.60;64.00
39655;DHT22;25336;59.944;11.010;2023-12-04T00:34:49;-7.60;64.60
39655;DHT22;25336;59.944;11.010;2023-12-04T00:37:15;-8.60;63.90
39655;DHT22;25336;59.944;11.010;2023-12-04T00:39:40;-8.60;64.00
39655;DHT22;25336;59.944;11.010;2023-12-04T00:42:06;-8.60;63.90
39655;DHT22;25336;59.944;11.010;2023-12-04T00:44:32;-8.60;64.00
39655;DHT22;25336;59.944;11.010;2023-12-04T00:46:57;-8.70;64.00
39655;DHT22;25336;59.944;11.010;2023-12-04T00:49:23;-8.60;64.10
39655;DHT22;25336;59.944;11.010;2023-12-04T00:51:49;-8.60;64.30
39655;DHT22;25336;59.944;11.010;2023-12-04T00:54:15;-8.60;64.30
39655;DHT22;25336;59.944;11.010;2023-12-04T00:56:41;-8.60;64.40
39655;DHT22;25336;59.944;11.010;2023-12-04T00:59:10;-8.60;64.40
39655;DHT22;25336;59.944;11.010;2023-12-04T01:01:37;-8.50;64.40
39655;DHT22;25336;59.944;11.010;2023-12-04T01:04:03;-8.50;64.40
39655;DHT22;25336;59.944;11.010;2023-12-04T01:06:29;-8.50;64.40
39655;DHT22;25336;59.944;11.010;2023-12-04T01:08:56;-8.50;64.40
39655;DHT22;25336;59.944;11.010;2023-12-04T01:11:23;-8.50;64.40
39655;DHT22;25336;59.944;11.010;2023-12-04T01:13:49;-8.50;64.40
39655;DHT22;25336;59.944;11.010;2023-12-04T01:16:15;-8.50;64.30
39655;DHT22;25336;59.944;11.010;2023-12-04T01:18:41;-8.50;64.10
39655;DHT22;25336;59.944;11.010;2023-12-04T01:21:08;-7.90;64.40
39655;DHT22;25336;59.944;11.010;2023-12-04T01:23:37;-8.50;64.00
39655;DHT22;25336;59.944;11.010;2023-12-04T01:26:03;-8.50;64.00
39655;DHT22;25336;59.944;11.010;2023-12-04T01:28:29;-8.20;64.20
39655;DHT22;25336;59.944;11.010;2023-12-04T01:30:55;-8.60;63.90
39655;DHT22;25336;59.944;11.010;2023-12-04T01:33:21;-8.60;63.80
39655;DHT22;25336;59.944;11.010;2023-12-04T01:35:46;-8.60;63.60
39655;DHT22;25336;59.944;11.010;2023-12-04T01:38:12;-8.70;63.50
39655;DHT22;25336;59.944;11.010;2023-12-04T01:40:38;-8.70;63.50
39655;DHT22;25336;59.944;11.010;2023-12-04T01:43:04;-8.70;63.50
39655;DHT22;25336;59.944;11.010;2023-12-04T01:45:32;-8.80;63.60
39655;DHT22;25336;59.944;11.010;2023-12-04T01:47:58;-8.80;63.70
39655;DHT22;25336;59.944;11.010;2023-12-04T01:50:24;-8.60;63.90
39655;DHT22;25336;59.944;11.010;2023-12-04T01:52:52;-8.80;63.80
39655;DHT22;25336;59.944;11.010;2023-12-04T01:55:19;-9.60;63.30
39655;DHT22;25336;59.944;11.010;2023-12-04T01:57:45;-8.80;63.90
39655;DHT22;25336;59.944;11.010;2023-12-04T02:00:12;-8.90;63.90
39655;DHT22;25336;59.944;11.010;2023-12-04T02:02:38;-8.80;64.00
39655;DHT22;25336;59.944;11.010;2023-12-04T02:05:07;-8.90;64.10
39655;DHT22;25336;59.944;11.010;2023-12-04T02:07:33;-8.80;64.30
39655;DHT22;25336;59.944;11.010;2023-12-04T02:09:59;-8.80;64.50
39655;DHT22;25336;59.944;11.010;2023-12-04T02:12:25;-8.80;64.50
39655;DHT22;25336;59.944;11.010;2023-12-04T02:14:52;-8.80;64.60
39655;DHT22;25336;59.944;11.010;2023-12-04T02:17:18;-8.70;64.60
39655;DHT22;25336;59.944;11.010;2023-12-04T02:19:45;-8.70;64.70
39655;DHT22;25336;59.944;11.010;2023-12-04T02:22:10;-8.60;64.70
39655;DHT22;25336;59.944;11.010;2023-12-04T02:24:36;-7.70;65.20
39655;DHT22;25336;59.944;11.010;2023-12-04T02:27:10;-8.60;64.60
39655;DHT22;25336;59.944;11.010;2023-12-04T02:29:40;-8.60;64.60
39655;DHT22;25336;59.944;11.010;2023-12-04T02:32:10;-8.60;64.60
39655;DHT22;25336;59.944;11.010;2023-12-04T02:34:40;-8.60;64.60
39655;DHT22;25336;59.944;11.010;2023-12-04T02:37:08;-8.60;64.60
39655;DHT22;25336;59.944;11.010;2023-12-04T02:39:35;-8.80;64.40
39655;DHT22;25336;59.944;11.010;2023-12-04T02:42:02;-8.60;64.50
39655;DHT22;25336;59.944;11.010;2023-12-04T02:44:28;-8.60;64.50
39655;DHT22;25336;59.944;11.010;2023-12-04T02:46:54;-8.60;64.50
39655;DHT22;25336;59.944;11.010;2023-12-04T02:49:19;-8.60;64.50
39655;DHT22;25336;59.944;11.010;2023-12-04T02:51:45;-8.60;64.40
39655;DHT22;25336;59.944;11.010;2023-12-04T02:54:11;-8.60;64.50
39655;DHT22;25336;59.944;11.010;2023-12-04T02:56:36;-8.60;64.40
39655;DHT22;25336;59.944;11.010;2023-12-04T02:59:02;-8.60;64.40
39655;DHT22;25336;59.944;11.010;2023-12-04T03:01:28;-8.60;64.40
39655;DHT22;25336;59.944;11.010;2023-12-04T03:03:53;-7.30;65.40
39655;DHT22;25336;59.944;11.010;2023-12-04T03:06:19;-8.60;64.50
39655;DHT22;25336;59.944;11.010;2023-12-04T03:08:45;-8.60;64.50
39655;DHT22;25336;59.944;11.010;2023-12-04T03:11:10;-8.50;64.60
39655;DHT22;25336;59.944;11.010;2023-12-04T03:13:36;-8.10;64.80
39655;DHT22;25336;59.944;11.010;2023-12-04T03:16:02;-8.50;64.60
39655;DHT22;25336;59.944;11.010;2023-12-04T03:18:28;-8.50;64.60
39655;DHT22;25336;59.944;11.010;2023-12-04T03:20:54;-8.50;64.60
39655;DHT22;25336;59.944;11.010;2023-12-04T03:23:20;-8.50;64.60
39655;DHT22;25336;59.944;11.010;2023-12-04T03:25:46;-8.50;64.60
39655;DHT22;25336;59.944;11.010;2023-12-04T03:28:11;-8.50;64.60
39655;DHT22;25336;59.944;11.010;2023-12-04T03:30:38;-8.70;64.50
39655;DHT22;25336;59.944;11.010;2023-12-04T03:33:04;-8.40;64.70
39655;DHT22;25336;59.944;11.010;2023-12-04T03:35:30;-7.60;65.20
39655;DHT22;25336;59.944;11.010;2023-12-04T03:37:55;-8.40;64.70
39655;DHT22;25336;59.944;11.010;2023-12-04T03:40:21;-8.40;64.60
39655;DHT22;25336;59.944;11.010;2023-12-04T03:42:47;-8.40;64.60
39655;DHT22;25336;59.944;11.010;2023-12-04T03:45:13;-8.40;64.50
39655;DHT22;25336;59.944;11.010;2023-12-04T03:47:38;-8.30;64.50
39655;DHT22;25336;59.944;11.010;2023-12-04T03:50:05;-8.30;64.50
39655;DHT22;25336;59.944;11.010;2023-12-04T03:52:31;-8.30;64.40
39655;DHT22;25336;59.944;11.010;2023-12-04T03:54:56;-8.30;64.40
39655;DHT22;25336;59.944;11.010;2023-12-04T03:57:22;-8.30;64.30
39655;DHT22;25336;59.944;11.010;2023-12-04T03:59:48;-8.30;65.00
39655;DHT22;25336;59.944;11.010;2023-12-04T04:02:13;-8.30;64.20
39655;DHT22;25336;59.944;11.010;2023-12-04T04:04:39;-8.30;64.10
39655;DHT22;25336;59.944;11.010;2023-12-04T04:07:05;-8.30;64.00
39655;DHT22;25336;59.944;11.010;2023-12-04T04:09:31;-8.30;64.10
39655;DHT22;25336;59.944;11.010;2023-12-04T04:11:56;-8.20;64.10
39655;DHT22;25336;59.944;11.010;2023-12-04T04:14:22;-8.40;64.00
39655;DHT22;25336;59.944;11.010;2023-12-04T04:16:48;-8.40;63.90
39655;DHT22;25336;59.944;11.010;2023-12-04T04:19:14;-8.40;63.90
39655;DHT22;25336;59.944;11.010;2023-12-04T04:21:40;-8.40;63.90
39655;DHT22;25336;59.944;11.010;2023-12-04T04:24:06;-8.40;63.90
39655;DHT22;25336;59.944;11.010;2023-12-04T04:26:32;-7.50;64.50
39655;DHT22;25336;59.944;11.010;2023-12-04T04:28:58;-8.50;63.80
39655;DHT22;25336;59.944;11.010;2023-12-04T04:31:24;-8.50;63.90
39655;DHT22;25336;59.944;11.010;2023-12-04T04:33:50;-8.50;64.00
39655;DHT22;25336;59.944;11.010;2023-12-04T04:36:16;-8.50;64.00
39655;DHT22;25336;59.944;11.010;2023-12-04T04:38:41;-8.50;64.00
39655;DHT22;25336;59.944;11.010;2023-12-04T04:41:12;-8.60;64.00
39655;DHT22;25336;59.944;11.010;2023-12-04T04:43:38;-8.60;64.00
39655;DHT22;25336;59.944;11.010;2023-12-04T04:46:04;-8.60;64.00
39655;DHT22;25336;59.944;11.010;2023-12-04T04:48:29;-8.50;64.00
39655;DHT22;25336;59.944;11.010;2023-12-04T04:50:55;-8.70;63.90
39655;DHT22;25336;59.944;11.010;2023-12-04T04:53:21;-8.70;63.90
39655;DHT22;25336;59.944;11.010;2023-12-04T04:55:46;-8.70;64.00
39655;DHT22;25336;59.944;11.010;2023-12-04T04:58:12;-8.70;64.00
39655;DHT22;25336;59.944;11.010;2023-12-04T05:00:38;-8.70;64.00
39655;DHT22;25336;59.944;11.010;2023-12-04T05:03:03;-8.70;63.90
39655;DHT22;25336;59.944;11.010;2023-12-04T05:05:29;-8.70;64.00
39655;DHT22;25336;59.944;11.010;2023-12-04T05:07:55;-8.80;63.90
39655;DHT22;25336;59.944;11.010;2023-12-04T05:10:20;-8.80;63.90
39655;DHT22;25336;59.944;11.010;2023-12-04T05:12:46;-8.20;64.40
39655;DHT22;25336;59.944;11.010;2023-12-04T05:15:12;-7.90;64.60
39655;DHT22;25336;59.944;11.010;2023-12-04T05:17:38;-8.80;64.10
39655;DHT22;25336;59.944;11.010;2023-12-04T05:20:04;-8.80;64.10
39655;DHT22;25336;59.944;11.010;2023-12-04T05:22:29;-8.80;64.20
39655;DHT22;25336;59.944;11.010;2023-12-04T05:24:55;-8.80;64.30
39655;DHT22;25336;59.944;11.010;2023-12-04T05:27:21;-8.80;64.30
39655;DHT22;25336;59.944;11.010;2023-12-04T05:29:46;-8.80;64.40
39655;DHT22;25336;59.944;11.010;2023-12-04T05:32:13;-8.80;64.50
39655;DHT22;25336;59.944;11.010;2023-12-04T05:34:38;-8.70;64.50
39655;DHT22;25336;59.944;11.010;2023-12-04T05:37:04;-8.70;64.50
39655;DHT22;25336;59.944;11.010;2023-12-04T05:39:30;-8.70;64.50
39655;DHT22;25336;59.944;11.010;2023-12-04T05:41:56;-8.60;64.50
39655;DHT22;25336;59.944;11.010;2023-12-04T05:44:22;-8.60;64.40
39655;DHT22;25336;59.944;11.010;2023-12-04T05:46:48;-8.60;64.50
39655;DHT22;25336;59.944;11.010;2023-12-04T05:49:14;-8.50;64.50
39655;DHT22;25336;59.944;11.010;2023-12-04T05:51:39;-8.10;64.70
39655;DHT22;25336;59.944;11.010;2023-12-04T05:54:05;-8.50;64.40
39655;DHT22;25336;59.944;11.010;2023-12-04T05:56:31;-8.50;64.40
39655;DHT22;25336;59.944;11.010;2023-12-04T05:58:56;-8.40;64.40
39655;DHT22;25336;59.944;11.010;2023-12-04T06:01:22;-8.40;64.40
39655;DHT22;25336;59.944;11.010;2023-12-04T06:03:48;-8.00;64.50
39655;DHT22;25336;59.944;11.010;2023-12-04T06:06:13;-7.70;64.70
39655;DHT22;25336;59.944;11.010;2023-12-04T06:08:39;-7.50;64.70
39655;DHT22;25336;59.944;11.010;2023-12-04T06:11:05;-8.40;64.10
39655;DHT22;25336;59.944;11.010;2023-12-04T06:13:31;-8.40;63.90
39655;DHT22;25336;59.944;11.010;2023-12-04T06:15:56;-8.40;63.90
39655;DHT22;25336;59.944;11.010;2023-12-04T06:18:22;-8.40;63.90
39655;DHT22;25336;59.944;11.010;2023-12-04T06:20:48;-8.40;63.90
39655;DHT22;25336;59.944;11.010;2023-12-04T06:23:14;-7.60;64.40
39655;DHT22;25336;59.944;11.010;2023-12-04T06:25:40;-8.50;63.70
39655;DHT22;25336;59.944;11.010;2023-12-04T06:28:07;-8.50;63.70
39655;DHT22;25336;59.944;11.010;2023-12-04T06:30:33;-8.60;63.60
39655;DHT22;25336;59.944;11.010;2023-12-04T06:32:59;-8.60;63.60
39655;DHT22;25336;59.944;11.010;2023-12-04T06:35:25;-8.60;63.40
39655;DHT22;25336;59.944;11.010;2023-12-04T06:37:53;-8.60;63.40
39655;DHT22;25336;59.944;11.010;2023-12-04T06:40:20;-8.70;63.40
39655;DHT22;25336;59.944;11.010;2023-12-04T06:42:46;-7.60;63.90
39655;DHT22;25336;59.944;11.010;2023-12-04T06:45:12;-8.80;63.10
39655;DHT22;25336;59.944;11.010;2023-12-04T06:47:40;-8.90;63.00
39655;DHT22;25336;59.944;11.010;2023-12-04T06:50:07;-8.90;63.00
39655;DHT22;25336;59.944;11.010;2023-12-04T06:52:32;-9.00;63.00
39655;DHT22;25336;59.944;11.010;2023-12-04T06:54:58;-9.10;63.00
39655;DHT22;25336;59.944;11.010;2023-12-04T06:57:24;-9.10;63.10
39655;DHT22;25336;59.944;11.010;2023-12-04T06:59:49;-9.10;63.10
39655;DHT22;25336;59.944;11.010;2023-12-04T07:02:15;-9.20;63.10
39655;DHT22;25336;59.944;11.010;2023-12-04T07:04:41;-9.20;63.20
39655;DHT22;25336;59.944;11.010;2023-12-04T07:07:07;-9.30;63.20
39655;DHT22;25336;59.944;11.010;2023-12-04T07:09:33;-8.00;64.10
39655;DHT22;25336;59.944;11.010;2023-12-04T07:12:00;-9.30;63.40
39655;DHT22;25336;59.944;11.010;2023-12-04T07:14:26;-9.30;63.60
39655;DHT22;25336;59.944;11.010;2023-12-04T07:16:52;-8.20;64.30
39655;DHT22;25336;59.944;11.010;2023-12-04T07:19:17;-9.30;63.70
39655;DHT22;25336;59.944;11.010;2023-12-04T07:21:43;-9.30;63.90
39655;DHT22;25336;59.944;11.010;2023-12-04T07:24:09;-9.00;64.10
39655;DHT22;25336;59.944;11.010;2023-12-04T07:26:35;-9.30;64.00
39655;DHT22;25336;59.944;11.010;2023-12-04T07:29:02;-9.30;64.00
39655;DHT22;25336;59.944;11.010;2023-12-04T07:31:27;-9.20;64.10
39655;DHT22;25336;59.944;11.010;2023-12-04T07:33:54;-9.20;64.00
39655;DHT22;25336;59.944;11.010;2023-12-04T07:36:20;-9.20;64.00
39655;DHT22;25336;59.944;11.010;2023-12-04T07:38:46;-9.20;63.90
39655;DHT22;25336;59.944;11.010;2023-12-04T07:41:11;-8.10;64.60
39655;DHT22;25336;59.944;11.010;2023-12-04T07:43:37;-9.20;63.90
39655;DHT22;25336;59.944;11.010;2023-12-04T07:46:03;-9.20;63.90
39655;DHT22;25336;59.944;11.010;2023-12-04T07:48:30;-9.20;63.70
39655;DHT22;25336;59.944;11.010;2023-12-04T07:50:56;-9.10;63.90
39655;DHT22;25336;59.944;11.010;2023-12-04T07:53:21;-9.20;63.70
39655;DHT22;25336;59.944;11.010;2023-12-04T07:55:48;-7.80;64.70
39655;DHT22;25336;59.944;11.010;2023-12-04T07:58:17;-9.10;63.80
39655;DHT22;25336;59.944;11.010;2023-12-04T08:00:44;-9.10;63.30
39655;DHT22;25336;59.944;11.010;2023-12-04T08:03:10;-9.10;63.60
39655;DHT22;25336;59.944;11.010;2023-12-04T08:05:36;-7.90;64.40
39655;DHT22;25336;59.944;11.010;2023-12-04T08:08:01;-9.10;63.60
39655;DHT22;25336;59.944;11.010;2023-12-04T08:10:27;-9.00;63.60
39655;DHT22;25336;59.944;11.010;2023-12-04T08:12:53;-9.00;63.50
39655;DHT22;25336;59.944;11.010;2023-12-04T08:15:19;-9.00;63.50
39655;DHT22;25336;59.944;11.010;2023-12-04T08:17:45;-9.00;63.40
39655;DHT22;25336;59.944;11.010;2023-12-04T08:20:11;-8.50;63.70
39655;DHT22;25336;59.944;11.010;2023-12-04T08:22:41;-9.00;63.40
39655;DHT22;25336;59.944;11.010;2023-12-04T08:25:07;-9.00;63.40
39655;DHT22;25336;59.944;11.010;2023-12-04T08:27:33;-9.00;63.40
39655;DHT22;25336;59.944;11.010;2023-12-04T08:29:59;-9.00;63.40
39655;DHT22;25336;59.944;11.010;2023-12-04T08:32:25;-9.00;63.30
39655;DHT22;25336;59.944;11.010;2023-12-04T08:34:52;-9.00;64.10
39655;DHT22;25336;59.944;11.010;2023-12-04T08:37:20;-9.00;63.30
39655;DHT22;25336;59.944;11.010;2023-12-04T08:39:46;-9.00;63.40
39655;DHT22;25336;59.944;11.010;2023-12-04T08:42:12;-9.00;63.40
39655;DHT22;25336;59.944;11.010;2023-12-04T08:44:38;-9.00;63.50
39655;DHT22;25336;59.944;11.010;2023-12-04T08:47:04;-9.00;63.50
39655;DHT22;25336;59.944;11.010;2023-12-04T08:49:30;-9.00;63.50
39655;DHT22;25336;59.944;11.010;2023-12-04T08:51:56;-9.10;63.50
39655;DHT22;25336;59.944;11.010;2023-12-04T08:54:22;-9.00;63.60
39655;DHT22;25336;59.944;11.010;2023-12-04T08:56:48;-9.00;63.60
39655;DHT22;25336;59.944;11.010;2023-12-04T08:59:14;-9.00;63.50
39655;DHT22;25336;59.944;11.010;2023-12-04T09:01:39;-9.00;63.50
39655;DHT22;25336;59.944;11.010;2023-12-04T09:04:08;-9.00;63.40
39655;DHT22;25336;59.944;11.010;2023-12-04T09:06:33;-9.00;63.20
39655;DHT22;25336;59.944;11.010;2023-12-04T09:08:59;-9.10;62.80
39655;DHT22;25336;59.944;11.010;2023-12-04T09:11:25;-9.10;62.70
39655;DHT22;25336;59.944;11.010;2023-12-04T09:13:50;-9.20;62.70
39655;DHT22;25336;59.944;11.010;2023-12-04T09:16:16;-9.20;62.80
39655;DHT22;25336;59.944;11.010;2023-12-04T09:18:42;-9.30;62.70
39655;DHT22;25336;59.944;11.010;2023-12-04T09:21:08;-9.30;62.70
39655;DHT22;25336;59.944;11.010;2023-12-04T09:23:35;-9.30;62.80
39655;DHT22;25336;59.944;11.010;2023-12-04T09:26:01;-8.60;63.40
39655;DHT22;25336;59.944;11.010;2023-12-04T09:28:27;-9.40;63.00
39655;DHT22;25336;59.944;11.010;2023-12-04T09:30:52;-9.40;63.10
39655;DHT22;25336;59.944;11.010;2023-12-04T09:33:18;-9.50;63.10
39655;DHT22;25336;59.944;11.010;2023-12-04T09:35:44;-9.50;63.30
39655;DHT22;25336;59.944;11.010;2023-12-04T09:38:10;-9.50;63.50
39655;DHT22;25336;59.944;11.010;2023-12-04T09:40:36;-9.40;63.60
39655;DHT22;25336;59.944;11.010;2023-12-04T09:43:02;-9.40;63.50
39655;DHT22;25336;59.944;11.010;2023-12-04T09:45:29;-9.50;63.50
39655;DHT22;25336;59.944;11.010;2023-12-04T09:47:56;-9.40;63.60
39655;DHT22;25336;59.944;11.010;2023-12-04T09:50:22;-9.40;63.70
39655;DHT22;25336;59.944;11.010;2023-12-04T09:52:52;-9.40;63.70
39655;DHT22;25336;59.944;11.010;2023-12-04T09:55:18;-9.40;63.70
39655;DHT22;25336;59.944;11.010;2023-12-04T09:57:44;-9.40;63.80
39655;DHT22;25336;59.944;11.010;2023-12-04T10:00:15;-9.40;63.80
39655;DHT22;25336;59.944;11.010;2023-12-04T10:02:41;-8.00;64.60
39655;DHT22;25336;59.944;11.010;2023-12-04T10:05:08;-8.00;64.50
39655;DHT22;25336;59.944;11.010;2023-12-04T10:07:34;-9.30;63.60
39655;DHT22;25336;59.944;11.010;2023-12-04T10:10:02;-9.30;63.60
39655;DHT22;25336;59.944;11.010;2023-12-04T10:12:31;-9.30;63.50
39655;DHT22;25336;59.944;11.010;2023-12-04T10:15:06;-9.30;63.50
39655;DHT22;25336;59.944;11.010;2023-12-04T10:17:42;-9.20;63.60
39655;DHT22;25336;59.944;11.010;2023-12-04T10:20:11;-9.20;63.60
39655;DHT22;25336;59.944;11.010;2023-12-04T10:22:55;-9.20;63.70
39655;DHT22;25336;59.944;11.010;2023-12-04T10:25:22;-9.20;63.60
39655;DHT22;25336;59.944;11.010;2023-12-04T10:27:50;-9.10;63.70
39655;DHT22;25336;59.944;11.010;2023-12-04T10:32:49;-7.80;64.60
39655;DHT22;25336;59.944;11.010;2023-12-04T10:35:19;-9.10;63.80
39655;DHT22;25336;59.944;11.010;2023-12-04T10:37:44;-8.90;64.00
39655;DHT22;25336;59.944;11.010;2023-12-04T10:40:10;-9.00;63.90
39655;DHT22;25336;59.944;11.010;2023-12-04T10:42:36;-9.00;63.80
39655;DHT22;25336;59.944;11.010;2023-12-04T10:45:02;-9.00;63.80
39655;DHT22;25336;59.944;11.010;2023-12-04T10:47:30;-9.00;63.90
39655;DHT22;25336;59.944;11.010;2023-12-04T10:49:57;-9.00;63.90
39655;DHT22;25336;59.944;11.010;2023-12-04T10:52:23;-9.00;63.80
39655;DHT22;25336;59.944;11.010;2023-12-04T10:54:49;-8.90;63.90
39655;DHT22;25336;59.944;11.010;2023-12-04T10:57:33;-8.00;64.40
39655;DHT22;25336;59.944;11.010;2023-12-04T11:00:04;-8.90;63.90
39655;DHT22;25336;59.944;11.010;2023-12-04T11:02:34;-8.80;63.90
39655;DHT22;25336;59.944;11.010;2023-12-04T11:05:08;-8.80;63.90
39655;DHT22;25336;59.944;11.010;2023-12-04T11:07:42;-8.80;63.80
39655;DHT22;25336;59.944;11.010;2023-12-04T11:10:10;-8.80;63.80
39655;DHT22;25336;59.944;11.010;2023-12-04T11:12:40;-8.30;64.10
39655;DHT22;25336;59.944;11.010;2023-12-04T11:15:13;-8.70;64.60
39655;DHT22;25336;59.944;11.010;2023-12-04T11:17:43;-8.70;63.90
39655;DHT22;25336;59.944;11.010;2023-12-04T11:20:16;-7.80;64.30
39655;DHT22;25336;59.944;11.010;2023-12-04T11:22:44;-8.60;63.70
39655;DHT22;25336;59.944;11.010;2023-12-04T11:25:12;-8.70;63.70
39655;DHT22;25336;59.944;11.010;2023-12-04T11:27:39;-8.60;63.70
39655;DHT22;25336;59.944;11.010;2023-12-04T11:30:07;-8.60;63.70
39655;DHT22;25336;59.944;11.010;2023-12-04T11:32:48;-8.70;63.60
39655;DHT22;25336;59.944;11.010;2023-12-04T11:35:18;-7.30;64.50
39655;DHT22;25336;59.944;11.010;2023-12-04T11:37:48;-8.20;63.90
39655;DHT22;25336;59.944;11.010;2023-12-04T11:40:18;-7.80;64.10
39655;DHT22;25336;59.944;11.010;2023-12-04T11:42:43;-8.40;63.70
39655;DHT22;25336;59.944;11.010;2023-12-04T11:45:10;-8.30;63.70
39655;DHT22;25336;59.944;11.010;2023-12-04T11:47:55;-8.30;63.60
39655;DHT22;25336;59.944;11.010;2023-12-04T11:50:24;-8.30;63.50
39655;DHT22;25336;59.944;11.010;2023-12-04T11:52:50;-8.20;63.60
39655;DHT22;25336;59.944;11.010;2023-12-04T11:55:25;-8.20;63.50
39655;DHT22;25336;59.944;11.010;2023-12-04T11:57:53;-7.30;64.10
39655;DHT22;25336;59.944;11.010;2023-12-04T12:00:21;-8.20;63.40
39655;DHT22;25336;59.944;11.010;2023-12-04T12:05:18;-8.10;63.60
39655;DHT22;25336;59.944;11.010;2023-12-04T12:07:45;-8.20;63.50
39655;DHT22;25336;59.944;11.010;2023-12-04T12:10:12;-8.10;63.60
39655;DHT22;25336;59.944;11.010;2023-12-04T12:12:39;-8.10;63.70
39655;DHT22;25336;59.944;11.010;2023-12-04T12:15:11;-8.10;63.70
39655;DHT22;25336;59.944;11.010;2023-12-04T12:17:41;-8.10;63.80
39655;DHT22;25336;59.944;11.010;2023-12-04T12:20:11;-8.10;63.90
39655;DHT22;25336;59.944;11.010;2023-12-04T12:22:38;-8.10;64.00
39655;DHT22;25336;59.944;11.010;2023-12-04T12:25:13;-8.10;63.90
39655;DHT22;25336;59.944;11.010;2023-12-04T12:27:39;-8.00;64.10
39655;DHT22;25336;59.944;11.010;2023-12-04T12:30:06;-8.00;64.10
39655;DHT22;25336;59.944;11.010;2023-12-04T12:32:32;-8.00;64.30
39655;DHT22;25336;59.944;11.010;2023-12-04T12:34:58;-7.20;64.80
39655;DHT22;25336;59.944;11.010;2023-12-04T12:37:24;-6.70;65.10
39655;DHT22;25336;59.944;11.010;2023-12-04T12:39:51;-8.00;64.40
39655;DHT22;25336;59.944;11.010;2023-12-04T12:42:25;-8.00;64.50
39655;DHT22;25336;59.944;11.010;2023-12-04T12:44:51;-8.00;64.50
39655;DHT22;25336;59.944;11.010;2023-12-04T12:47:18;-7.80;65.40
39655;DHT22;25336;59.944;11.010;2023-12-04T12:49:44;-7.90;64.50
39655;DHT22;25336;59.944;11.010;2023-12-04T12:52:10;-6.90;65.00
39655;DHT22;25336;59.944;11.010;2023-12-04T12:54:38;-7.00;64.90
39655;DHT22;25336;59.944;11.010;2023-12-04T12:57:04;-7.90;64.40
39655;DHT22;25336;59.944;11.010;2023-12-04T12:59:31;-7.90;64.40
39655;DHT22;25336;59.944;11.010;2023-12-04T13:01:57;-8.00;64.20
39655;DHT22;25336;59.944;11.010;2023-12-04T13:04:25;-8.00;64.20
39655;DHT22;25336;59.944;11.010;2023-12-04T13:06:51;-8.00;64.30
39655;DHT22;25336;59.944;11.010;2023-12-04T13:09:17;-8.10;64.20
39655;DHT22;25336;59.944;11.010;2023-12-04T13:11:46;-8.10;64.20
39655;DHT22;25336;59.944;11.010;2023-12-04T13:14:12;-8.10;64.20
39655;DHT22;25336;59.944;11.010;2023-12-04T13:16:39;-8.10;64.10
39655;DHT22;25336;59.944;11.010;2023-12-04T13:19:05;-8.10;64.10
39655;DHT22;25336;59.944;11.010;2023-12-04T13:21:32;-8.20;64.10
39655;DHT22;25336;59.944;11.010;2023-12-04T13:23:58;-8.20;64.20
39655;DHT22;25336;59.944;11.010;2023-12-04T13:26:24;-8.20;64.20
39655;DHT22;25336;59.944;11.010;2023-12-04T13:28:49;-7.30;64.80
39655;DHT22;25336;59.944;11.010;2023-12-04T13:31:15;-8.20;64.20
39655;DHT22;25336;59.944;11.010;2023-12-04T13:33:41;-8.20;64.20
39655;DHT22;25336;59.944;11.010;2023-12-04T13:36:09;-8.30;64.20
39655;DHT22;25336;59.944;11.010;2023-12-04T13:38:35;-8.30;64.20
39655;DHT22;25336;59.944;11.010;2023-12-04T13:41:01;-8.30;64.20
39655;DHT22;25336;59.944;11.010;2023-12-04T13:43:34;-7.50;64.70
39655;DHT22;25336;59.944;11.010;2023-12-04T13:46:15;-8.30;64.10
39655;DHT22;25336;59.944;11.010;2023-12-04T13:48:41;-8.30;64.00
39655;DHT22;25336;59.944;11.010;2023-12-04T13:51:10;-8.40;63.80
39655;DHT22;25336;59.944;11.010;2023-12-04T13:53:37;-8.40;63.80
39655;DHT22;25336;59.944;11.010;2023-12-04T13:56:15;-7.60;64.30
39655;DHT22;25336;59.944;11.010;2023-12-04T13:58:59;-8.40;63.90
39655;DHT22;25336;59.944;11.010;2023-12-04T14:01:26;-8.40;63.90
39655;DHT22;25336;59.944;11.010;2023-12-04T14:03:56;-8.50;63.80
39655;DHT22;25336;59.944;11.010;2023-12-04T14:06:30;-8.50;63.70
39655;DHT22;25336;59.944;11.010;2023-12-04T14:08:58;-8.50;63.60
39655;DHT22;25336;59.944;11.010;2023-12-04T14:11:24;-8.50;63.60
39655;DHT22;25336;59.944;11.010;2023-12-04T14:13:50;-8.50;63.60
39655;DHT22;25336;59.944;11.010;2023-12-04T14:16:16;-8.60;63.40
39655;DHT22;25336;59.944;11.010;2023-12-04T14:18:42;-7.40;64.20
39655;DHT22;25336;59.944;11.010;2023-12-04T14:21:08;-8.60;63.40
39655;DHT22;25336;59.944;11.010;2023-12-04T14:23:34;-8.60;63.40
39655;DHT22;25336;59.944;11.010;2023-12-04T14:26:00;-8.70;63.40
39655;DHT22;25336;59.944;11.010;2023-12-04T14:28:27;-8.70;63.50
39655;DHT22;25336;59.944;11.010;2023-12-04T14:30:53;-8.70;63.50
39655;DHT22;25336;59.944;11.010;2023-12-04T14:33:20;-8.80;63.40
39655;DHT22;25336;59.944;11.010;2023-12-04T14:35:45;-8.80;63.40
39655;DHT22;25336;59.944;11.010;2023-12-04T14:38:12;-8.80;63.50
39655;DHT22;25336;59.944;11.010;2023-12-04T14:40:38;-8.10;63.90
39655;DHT22;25336;59.944;11.010;2023-12-04T14:43:04;-8.90;63.40
39655;DHT22;25336;59.944;11.010;2023-12-04T14:45:35;-9.60;63.00
39655;DHT22;25336;59.944;11.010;2023-12-04T14:48:02;-9.00;63.50
39655;DHT22;25336;59.944;11.010;2023-12-04T14:50:31;-9.00;63.60
39655;DHT22;25336;59.944;11.010;2023-12-04T14:52:57;-9.00;63.50
39655;DHT22;25336;59.944;11.010;2023-12-04T14:55:24;-9.10;63.40
39655;DHT22;25336;59.944;11.010;2023-12-04T14:57:50;-9.20;63.40
39655;DHT22;25336;59.944;11.010;2023-12-04T15:00:48;-9.20;63.40
39655;DHT22;25336;59.944;11.010;2023-12-04T15:03:40;-9.20;63.50
39655;DHT22;25336;59.944;11.010;2023-12-04T15:06:11;-9.30;64.30
39655;DHT22;25336;59.944;11.010;2023-12-04T15:08:37;-9.30;63.50
39655;DHT22;25336;59.944;11.010;2023-12-04T15:11:21;-9.40;63.50
39655;DHT22;25336;59.944;11.010;2023-12-04T15:14:06;-8.60;64.10
39655;DHT22;25336;59.944;11.010;2023-12-04T15:16:34;-9.40;63.80
39655;DHT22;25336;59.944;11.010;2023-12-04T15:19:05;-9.50;63.80